createdAt,value
2019-03-18T00:00:14.392Z,99.99
2019-03-18T00:01:14.393Z,99.99
2019-03-18T00:02:14.742Z,99.99
2019-03-18T00:03:14.437Z,99.99
2019-03-18T00:04:14.423Z,99.99
2019-03-18T00:05:14.441Z,99.99
2019-03-18T00:06:14.439Z,99.99
2019-03-18T00:07:14.449Z,99.99
2019-03-18T00:08:14.469Z,99.99
2019-03-18T00:09:14.474Z,99.99
2019-03-18T00:10:14.482Z,99.99
2019-03-18T00:11:14.488Z,99.99
2019-03-18T00:12:14.499Z,99.99
2019-03-18T00:13:14.512Z,99.99
2019-03-18T00:14:14.527Z,99.99
2019-03-18T00:15:14.536Z,99.99
2019-03-18T00:16:14.546Z,99.99
2019-03-18T00:17:14.565Z,99.99
2019-03-18T00:18:14.661Z,99.99
2019-03-18T00:19:14.570Z,99.99
2019-03-18T00:20:14.586Z,99.99
2019-03-18T00:21:14.594Z,99.99
2019-03-18T00:22:14.602Z,99.99
2019-03-18T00:23:14.613Z,99.99
2019-03-18T00:24:14.618Z,99.99
2019-03-18T00:25:14.645Z,99.99
2019-03-18T00:26:14.643Z,99.99
2019-03-18T00:27:14.651Z,99.99
2019-03-18T00:28:14.658Z,99.99
2019-03-18T00:29:14.670Z,99.99
2019-03-18T00:30:14.704Z,99.99
2019-03-18T00:31:14.717Z,99.99
2019-03-18T00:32:14.735Z,99.99
2019-03-18T00:33:14.811Z,99.99
2019-03-18T00:34:14.735Z,99.99
2019-03-18T00:36:14.744Z,99.99
2019-03-18T00:37:14.762Z,99.99
2019-03-18T00:38:14.768Z,99.99
2019-03-18T00:39:14.777Z,99.99
2019-03-18T00:40:14.798Z,99.99
2019-03-18T00:41:14.873Z,99.99
2019-03-18T00:42:14.808Z,99.99
2019-03-18T00:43:14.821Z,99.99
2019-03-18T00:44:14.819Z,99.99
2019-03-18T00:45:15.690Z,99.99
2019-03-18T00:46:14.841Z,99.99
2019-03-18T00:47:14.870Z,99.99
2019-03-18T00:48:14.861Z,99.99
2019-03-18T00:49:14.936Z,99.99
2019-03-18T00:50:14.929Z,99.99
2019-03-18T00:51:14.894Z,99.99
2019-03-18T00:52:14.903Z,99.99
2019-03-18T00:53:14.910Z,99.99
2019-03-18T00:54:14.926Z,99.99
2019-03-18T00:55:14.929Z,99.99
2019-03-18T00:56:14.967Z,99.99
2019-03-18T00:57:14.947Z,99.99
2019-03-18T00:58:14.963Z,99.99
2019-03-18T00:59:15.049Z,99.99
2019-03-18T01:00:15.055Z,99.99
2019-03-18T01:01:14.993Z,99.99
2019-03-18T01:02:15.012Z,99.99
2019-03-18T01:03:15.065Z,99.99
2019-03-18T01:04:15.125Z,99.99
2019-03-18T01:05:15.029Z,99.99
2019-03-18T01:06:15.197Z,99.99
2019-03-18T01:07:15.049Z,99.99
2019-03-18T01:08:15.060Z,99.99
2019-03-18T01:09:15.056Z,99.99
2019-03-18T01:10:15.076Z,99.99
2019-03-18T01:11:15.074Z,99.99
2019-03-18T01:12:15.100Z,99.99
2019-03-18T01:13:15.103Z,99.99
2019-03-18T01:14:15.111Z,99.99
2019-03-18T01:15:27.542Z,99.99
2019-03-18T01:16:15.132Z,99.99
2019-03-18T01:17:15.141Z,99.99
2019-03-18T01:18:15.179Z,99.99
2019-03-18T01:19:15.160Z,99.99
2019-03-18T01:20:15.251Z,99.99
2019-03-18T01:21:15.195Z,99.99
2019-03-18T01:22:15.197Z,99.99
2019-03-18T01:23:15.193Z,99.99
2019-03-18T01:24:15.207Z,99.99
2019-03-18T01:25:15.214Z,99.99
2019-03-18T01:26:15.231Z,99.99
2019-03-18T01:27:15.240Z,99.99
2019-03-18T01:28:15.250Z,99.99
2019-03-18T01:29:15.270Z,99.99
2019-03-18T01:30:15.273Z,99.99
2019-03-18T01:31:15.281Z,99.99
2019-03-18T01:32:15.287Z,99.99
2019-03-18T01:33:15.297Z,99.99
2019-03-18T01:34:15.375Z,99.99
2019-03-18T01:35:15.318Z,99.99
2019-03-18T01:36:15.346Z,99.99
2019-03-18T01:37:15.339Z,99.99
2019-03-18T01:39:15.785Z,99.99
2019-03-18T01:40:15.366Z,99.99
2019-03-18T01:41:15.375Z,99.99
2019-03-18T01:42:16.896Z,99.99
2019-03-18T01:43:15.394Z,99.99
2019-03-18T01:44:15.412Z,99.99
2019-03-18T01:45:15.415Z,99.99
2019-03-18T01:46:15.425Z,99.99
2019-03-18T01:47:15.439Z,99.99
2019-03-18T01:48:15.446Z,99.99
2019-03-18T01:49:15.463Z,99.99
2019-03-18T01:50:15.470Z,99.99
2019-03-18T01:51:15.473Z,99.99
2019-03-18T01:52:15.481Z,99.99
2019-03-18T01:53:15.495Z,99.99
2019-03-18T01:54:15.503Z,99.99
2019-03-18T01:55:15.516Z,99.99
2019-03-18T01:56:15.532Z,99.99
2019-03-18T01:57:15.534Z,99.99
2019-03-18T01:58:15.563Z,99.99
2019-03-18T01:59:15.562Z,99.99
2019-03-18T02:01:15.860Z,99.99
2019-03-18T02:02:15.608Z,99.99
2019-03-18T02:03:15.647Z,99.99
2019-03-18T02:04:15.609Z,99.99
2019-03-18T02:05:15.616Z,99.99
2019-03-18T02:06:15.624Z,99.99
2019-03-18T02:07:15.743Z,99.99
2019-03-18T02:08:15.702Z,99.99
2019-03-18T02:09:15.654Z,99.99
2019-03-18T02:10:15.743Z,99.99
2019-03-18T02:11:15.811Z,99.99
2019-03-18T02:12:15.685Z,99.99
2019-03-18T02:13:15.700Z,99.99
2019-03-18T02:14:15.710Z,99.99
2019-03-18T02:15:15.721Z,99.99
2019-03-18T02:16:15.731Z,99.99
2019-03-18T02:17:15.738Z,99.99
2019-03-18T02:18:15.741Z,99.99
2019-03-18T02:19:15.755Z,99.99
2019-03-18T02:20:15.799Z,99.99
2019-03-18T02:21:15.778Z,99.99
2019-03-18T02:22:15.832Z,99.99
2019-03-18T02:23:15.826Z,99.99
2019-03-18T02:24:15.818Z,99.99
2019-03-18T02:25:15.812Z,99.99
2019-03-18T02:26:15.825Z,99.99
2019-03-18T02:27:15.831Z,99.99
2019-03-18T02:28:15.857Z,99.99
2019-03-18T02:29:15.860Z,99.99
2019-03-18T02:30:15.876Z,99.99
2019-03-18T02:31:15.871Z,99.99
2019-03-18T02:32:15.909Z,99.99
2019-03-18T02:33:15.895Z,99.99
2019-03-18T02:34:15.914Z,99.99
2019-03-18T02:35:15.913Z,99.99
2019-03-18T02:36:15.921Z,99.99
2019-03-18T02:37:15.933Z,99.99
2019-03-18T02:38:15.942Z,99.99
2019-03-18T02:39:15.969Z,99.99
2019-03-18T02:40:15.963Z,99.99
2019-03-18T02:41:15.983Z,99.99
2019-03-18T02:42:15.987Z,99.99
2019-03-18T02:43:15.990Z,99.99
2019-03-18T02:44:16.003Z,99.99
2019-03-18T02:45:16.099Z,99.99
2019-03-18T02:46:16.023Z,99.99
2019-03-18T02:47:16.046Z,99.99
2019-03-18T02:48:16.040Z,99.99
2019-03-18T02:49:16.052Z,99.99
2019-03-18T02:50:16.065Z,99.99
2019-03-18T02:51:16.081Z,99.99
2019-03-18T02:52:16.082Z,99.99
2019-03-18T02:53:16.099Z,99.99
2019-03-18T02:54:16.210Z,99.99
2019-03-18T02:55:16.125Z,99.99
2019-03-18T02:56:16.216Z,99.99
2019-03-18T02:57:16.126Z,99.99
2019-03-18T02:58:16.144Z,99.99
2019-03-18T02:59:16.172Z,99.99
2019-03-18T03:00:16.162Z,99.99
2019-03-18T03:01:16.168Z,99.99
2019-03-18T03:02:16.172Z,99.99
2019-03-18T03:03:16.186Z,99.99
2019-03-18T03:04:16.192Z,99.99
2019-03-18T03:05:16.212Z,99.99
2019-03-18T03:06:16.249Z,99.99
2019-03-18T03:07:16.241Z,99.99
2019-03-18T03:08:16.229Z,99.99
2019-03-18T03:09:16.242Z,99.99
2019-03-18T03:10:16.250Z,99.99
2019-03-18T03:11:16.265Z,99.99
2019-03-18T03:12:16.414Z,99.99
2019-03-18T03:13:16.305Z,99.99
2019-03-18T03:14:16.438Z,99.99
2019-03-18T03:15:16.302Z,99.99
2019-03-18T03:16:26.597Z,99.99
2019-03-18T03:17:16.315Z,99.99
2019-03-18T03:18:16.326Z,99.99
2019-03-18T03:19:16.331Z,99.99
2019-03-18T03:20:16.348Z,99.99
2019-03-18T03:21:16.365Z,99.99
2019-03-18T03:22:16.365Z,99.99
2019-03-18T03:23:16.379Z,99.99
2019-03-18T03:24:16.387Z,99.99
2019-03-18T03:25:16.397Z,99.99
2019-03-18T03:26:16.517Z,99.99
2019-03-18T03:27:16.413Z,99.99
2019-03-18T03:28:16.526Z,99.99
2019-03-18T03:29:16.439Z,99.99
2019-03-18T03:30:16.488Z,99.99
2019-03-18T03:31:16.456Z,99.99
2019-03-18T03:32:16.470Z,99.99
2019-03-18T03:33:16.582Z,99.99
2019-03-18T03:34:16.501Z,99.99
2019-03-18T03:35:16.502Z,99.99
2019-03-18T03:36:16.507Z,99.99
2019-03-18T03:37:16.546Z,99.99
2019-03-18T03:38:16.532Z,99.99
2019-03-18T03:39:16.528Z,99.99
2019-03-18T03:40:16.537Z,99.99
2019-03-18T03:41:18.329Z,99.99
2019-03-18T03:42:16.561Z,99.99
2019-03-18T03:43:16.566Z,99.99
2019-03-18T03:44:16.620Z,99.99
2019-03-18T03:45:16.593Z,99.99
2019-03-18T03:46:16.609Z,99.99
2019-03-18T03:47:16.611Z,99.99
2019-03-18T03:48:16.619Z,99.99
2019-03-18T03:49:16.634Z,99.99
2019-03-18T03:50:16.645Z,99.99
2019-03-18T03:51:16.669Z,99.99
2019-03-18T03:52:16.670Z,99.99
2019-03-18T03:53:16.674Z,99.99
2019-03-18T03:54:16.695Z,99.99
2019-03-18T03:55:16.699Z,99.99
2019-03-18T03:56:16.708Z,99.99
2019-03-18T03:57:16.709Z,99.99
2019-03-18T03:58:16.719Z,99.99
2019-03-18T03:59:16.733Z,99.99
2019-03-18T04:00:16.750Z,99.99
2019-03-18T04:01:16.867Z,99.99
2019-03-18T04:02:16.757Z,99.99
2019-03-18T04:03:16.773Z,99.99
2019-03-18T04:04:16.772Z,99.99
2019-03-18T04:05:16.796Z,99.99
2019-03-18T04:06:17.106Z,99.99
2019-03-18T04:07:16.810Z,99.99
2019-03-18T04:08:16.816Z,99.99
2019-03-18T04:09:16.832Z,99.99
2019-03-18T04:10:16.833Z,99.99
2019-03-18T04:11:16.842Z,99.99
2019-03-18T04:12:16.876Z,99.99
2019-03-18T04:13:16.872Z,99.99
2019-03-18T04:14:16.882Z,99.99
2019-03-18T04:15:16.907Z,99.99
2019-03-18T04:16:16.903Z,99.99
2019-03-18T04:17:16.910Z,99.99
2019-03-18T04:18:16.913Z,99.99
2019-03-18T04:19:16.927Z,99.99
2019-03-18T04:20:16.977Z,99.99
2019-03-18T04:21:16.963Z,99.99
2019-03-18T04:22:17.047Z,99.99
2019-03-18T04:23:16.965Z,99.99
2019-03-18T04:24:16.975Z,99.99
2019-03-18T04:25:16.997Z,99.99
2019-03-18T04:26:16.993Z,99.99
2019-03-18T04:27:17.036Z,99.99
2019-03-18T04:28:17.011Z,99.99
2019-03-18T04:29:17.025Z,99.99
2019-03-18T04:30:17.040Z,99.99
2019-03-18T04:31:17.041Z,99.99
2019-03-18T04:32:17.161Z,99.99
2019-03-18T04:33:17.063Z,99.99
2019-03-18T04:34:17.070Z,99.99
2019-03-18T04:35:17.089Z,99.99
2019-03-18T04:36:17.090Z,99.99
2019-03-18T04:37:17.100Z,99.99
2019-03-18T04:38:17.131Z,99.99
2019-03-18T04:39:17.118Z,99.99
2019-03-18T04:40:17.210Z,99.99
2019-03-18T04:41:17.145Z,99.99
2019-03-18T04:42:17.149Z,99.99
2019-03-18T04:43:17.162Z,99.99
2019-03-18T04:44:17.165Z,99.99
2019-03-18T04:45:17.401Z,99.99
2019-03-18T04:46:17.210Z,99.99
2019-03-18T04:47:17.237Z,99.99
2019-03-18T04:48:17.208Z,99.99
2019-03-18T04:49:17.236Z,99.99
2019-03-18T04:50:17.234Z,99.99
2019-03-18T04:51:17.236Z,99.99
2019-03-18T04:52:17.247Z,99.99
2019-03-18T04:53:17.270Z,99.99
2019-03-18T04:54:17.269Z,99.99
2019-03-18T04:55:17.280Z,99.99
2019-03-18T04:56:17.283Z,99.99
2019-03-18T04:57:17.301Z,99.99
2019-03-18T04:58:17.306Z,99.99
2019-03-18T04:59:17.317Z,99.99
2019-03-18T05:00:17.332Z,99.99
2019-03-18T05:01:17.694Z,99.99
2019-03-18T05:02:17.350Z,99.99
2019-03-18T05:03:17.376Z,99.99
2019-03-18T05:04:17.374Z,99.99
2019-03-18T05:05:17.373Z,99.99
2019-03-18T05:06:17.388Z,99.99
2019-03-18T05:07:17.398Z,99.99
2019-03-18T05:08:17.409Z,99.99
2019-03-18T05:09:17.424Z,99.99
2019-03-18T05:10:17.432Z,99.99
2019-03-18T05:11:17.448Z,99.99
2019-03-18T05:12:17.499Z,99.99
2019-03-18T05:13:17.497Z,99.99
2019-03-18T05:14:17.463Z,99.99
2019-03-18T05:15:17.476Z,99.99
2019-03-18T05:16:17.487Z,99.99
2019-03-18T05:17:26.104Z,99.99
2019-03-18T05:18:17.506Z,99.99
2019-03-18T05:19:17.509Z,99.99
2019-03-18T05:20:17.529Z,99.99
2019-03-18T05:21:17.536Z,99.99
2019-03-18T05:22:17.552Z,99.99
2019-03-18T05:23:17.553Z,99.99
2019-03-18T05:24:17.562Z,99.99
2019-03-18T05:25:17.590Z,99.99
2019-03-18T05:26:17.584Z,99.99
2019-03-18T05:27:17.589Z,99.99
2019-03-18T05:28:17.603Z,99.99
2019-03-18T05:29:17.630Z,99.99
2019-03-18T05:30:17.619Z,99.99
2019-03-18T05:31:17.625Z,99.99
2019-03-18T05:32:17.642Z,99.99
2019-03-18T05:33:17.643Z,99.99
2019-03-18T05:34:17.664Z,99.99
2019-03-18T05:35:17.684Z,99.99
2019-03-18T05:36:17.679Z,99.99
2019-03-18T05:37:17.682Z,99.99
2019-03-18T05:38:17.799Z,99.99
2019-03-18T05:39:17.702Z,99.99
2019-03-18T05:40:17.716Z,99.99
2019-03-18T05:41:17.746Z,99.99
2019-03-18T05:42:17.743Z,99.99
2019-03-18T05:43:18.248Z,99.99
2019-03-18T05:44:17.776Z,99.99
2019-03-18T05:45:17.831Z,99.99
2019-03-18T05:46:17.818Z,99.99
2019-03-18T05:47:17.800Z,99.99
2019-03-18T05:48:18.175Z,99.99
2019-03-18T05:49:18.568Z,99.99
2019-03-18T05:50:17.973Z,99.99
2019-03-18T05:51:17.902Z,99.99
2019-03-18T05:52:17.972Z,99.99
2019-03-18T05:53:18.054Z,99.99
2019-03-18T05:54:18.077Z,99.99
2019-03-18T05:55:18.041Z,99.99
2019-03-18T05:56:18.076Z,99.99
2019-03-18T05:57:18.057Z,99.99
2019-03-18T05:58:17.890Z,99.99
2019-03-18T05:59:18.319Z,99.99
2019-03-18T06:00:18.023Z,99.99
2019-03-18T06:01:17.962Z,99.99
2019-03-18T06:02:18.115Z,99.99
2019-03-18T06:03:18.220Z,99.99
2019-03-18T06:04:18.163Z,99.99
2019-03-18T06:05:18.234Z,99.99
2019-03-18T06:06:18.049Z,99.99
2019-03-18T06:07:18.011Z,99.99
2019-03-18T06:08:18.231Z,99.99
2019-03-18T06:09:18.074Z,99.99
2019-03-18T06:10:18.287Z,99.99
2019-03-18T06:11:18.242Z,99.99
2019-03-18T06:12:18.272Z,99.99
2019-03-18T06:13:18.231Z,99.99
2019-03-18T06:14:18.321Z,99.99
2019-03-18T06:15:18.322Z,99.99
2019-03-18T06:16:18.438Z,99.99
2019-03-18T06:17:18.777Z,99.99
2019-03-18T06:18:18.227Z,99.99
2019-03-18T06:19:18.660Z,99.99
2019-03-18T06:20:18.343Z,99.99
2019-03-18T06:21:18.497Z,99.99
2019-03-18T06:22:18.695Z,99.99
2019-03-18T06:23:18.433Z,99.99
2019-03-18T06:24:18.396Z,99.99
2019-03-18T06:26:18.167Z,99.99
2019-03-18T06:27:18.187Z,99.99
2019-03-18T06:28:18.185Z,99.99
2019-03-18T06:29:18.201Z,99.99
2019-03-18T06:30:18.215Z,99.99
2019-03-18T06:31:18.237Z,99.99
2019-03-18T06:32:18.239Z,99.99
2019-03-18T06:33:18.234Z,99.99
2019-03-18T06:34:18.266Z,99.99
2019-03-18T06:35:20.483Z,99.99
2019-03-18T06:36:18.296Z,99.99
2019-03-18T06:37:18.295Z,99.99
2019-03-18T06:38:18.304Z,99.99
2019-03-18T06:39:18.299Z,99.99
2019-03-18T06:40:18.304Z,99.99
2019-03-18T06:41:18.337Z,99.99
2019-03-18T06:42:18.735Z,99.99
2019-03-18T06:43:18.332Z,99.99
2019-03-18T06:44:18.347Z,99.99
2019-03-18T06:45:18.367Z,99.99
2019-03-18T06:46:18.431Z,99.99
2019-03-18T06:47:18.473Z,99.99
2019-03-18T06:48:18.387Z,99.99
2019-03-18T06:49:19.249Z,99.99
2019-03-18T06:50:18.406Z,99.99
2019-03-18T06:51:18.551Z,99.99
2019-03-18T06:52:18.438Z,99.99
2019-03-18T06:53:18.434Z,99.99
2019-03-18T06:54:18.555Z,99.99
2019-03-18T06:55:18.779Z,99.99
2019-03-18T06:56:18.470Z,99.99
2019-03-18T06:57:18.481Z,99.99
2019-03-18T06:58:18.517Z,99.99
2019-03-18T06:59:18.511Z,99.99
2019-03-18T07:00:18.505Z,99.99
2019-03-18T07:01:18.521Z,99.99
2019-03-18T07:02:18.537Z,99.99
2019-03-18T07:03:18.535Z,99.99
2019-03-18T07:04:18.550Z,99.99
2019-03-18T07:05:18.613Z,99.99
2019-03-18T07:06:18.579Z,99.99
2019-03-18T07:07:18.581Z,99.99
2019-03-18T07:08:18.728Z,99.99
2019-03-18T07:09:18.622Z,99.99
2019-03-18T07:10:18.629Z,99.99
2019-03-18T07:11:18.620Z,99.99
2019-03-18T07:12:18.634Z,99.99
2019-03-18T07:13:18.648Z,99.99
2019-03-18T07:14:18.656Z,99.99
2019-03-18T07:15:18.674Z,99.99
2019-03-18T07:16:18.753Z,99.99
2019-03-18T07:17:18.724Z,99.99
2019-03-18T07:18:19.001Z,99.99
2019-03-18T07:20:18.720Z,99.99
2019-03-18T07:21:18.722Z,99.99
2019-03-18T07:22:18.730Z,99.99
2019-03-18T07:23:18.753Z,99.99
2019-03-18T07:24:18.771Z,99.99
2019-03-18T07:25:18.766Z,99.99
2019-03-18T07:26:18.781Z,99.99
2019-03-18T07:27:19.178Z,99.99
2019-03-18T07:28:18.851Z,99.99
2019-03-18T07:29:18.909Z,99.99
2019-03-18T07:30:18.863Z,99.99
2019-03-18T07:31:18.968Z,99.99
2019-03-18T07:32:18.833Z,99.99
2019-03-18T07:33:18.845Z,99.99
2019-03-18T07:34:18.861Z,99.99
2019-03-18T07:35:18.872Z,99.99
2019-03-18T07:36:18.880Z,99.99
2019-03-18T07:37:18.897Z,99.99
2019-03-18T07:38:18.906Z,99.99
2019-03-18T07:39:18.994Z,99.99
2019-03-18T07:40:18.967Z,99.99
2019-03-18T07:41:18.953Z,99.99
2019-03-18T07:42:18.934Z,99.99
2019-03-18T07:43:18.976Z,99.99
2019-03-18T07:44:18.956Z,99.99
2019-03-18T07:45:19.050Z,99.99
2019-03-18T07:46:18.981Z,99.99
2019-03-18T07:47:18.993Z,99.99
2019-03-18T07:48:30.240Z,99.99
2019-03-18T07:49:19.438Z,99.99
2019-03-18T07:50:19.057Z,99.99
2019-03-18T07:51:19.041Z,99.99
2019-03-18T07:52:21.793Z,99.99
2019-03-18T07:53:19.205Z,99.99
2019-03-18T07:54:31.879Z,99.99
2019-03-18T07:55:19.083Z,99.99
2019-03-18T07:56:19.479Z,99.99
2019-03-18T07:57:19.693Z,99.99
2019-03-18T07:58:19.129Z,99.99
2019-03-18T07:59:19.123Z,99.99
2019-03-18T08:00:19.183Z,99.99
2019-03-18T08:01:19.170Z,99.99
2019-03-18T08:02:19.157Z,99.99
2019-03-18T08:03:19.190Z,99.99
2019-03-18T08:04:19.182Z,99.99
2019-03-18T08:05:19.193Z,99.99
2019-03-18T08:06:19.217Z,99.99
2019-03-18T08:07:19.221Z,99.99
2019-03-18T08:08:19.255Z,99.99
2019-03-18T08:09:19.231Z,99.99
2019-03-18T08:10:19.237Z,99.99
2019-03-18T08:11:19.254Z,99.99
2019-03-18T08:12:19.458Z,99.99
2019-03-18T08:13:19.274Z,99.99
2019-03-18T08:14:19.659Z,99.99
2019-03-18T08:15:19.286Z,99.99
2019-03-18T08:16:20.180Z,99.99
2019-03-18T08:17:19.418Z,99.99
2019-03-18T08:18:19.349Z,99.99
2019-03-18T08:19:19.330Z,99.99
2019-03-18T08:20:19.345Z,99.99
2019-03-18T08:21:19.479Z,99.99
2019-03-18T08:22:19.978Z,99.99
2019-03-18T08:23:19.373Z,99.99
2019-03-18T08:24:19.498Z,99.99
2019-03-18T08:25:19.489Z,99.99
2019-03-18T08:27:19.507Z,99.99
2019-03-18T08:28:19.494Z,99.99
2019-03-18T08:29:19.592Z,99.99
2019-03-18T08:30:19.453Z,99.99
2019-03-18T08:31:19.701Z,99.99
2019-03-18T08:32:19.492Z,99.99
2019-03-18T08:33:19.484Z,99.99
2019-03-18T08:34:19.510Z,99.99
2019-03-18T08:35:20.218Z,99.99
2019-03-18T08:36:19.572Z,99.99
2019-03-18T08:37:20.263Z,99.99
2019-03-18T08:39:19.574Z,99.99
2019-03-18T08:40:19.619Z,99.99
2019-03-18T08:41:19.580Z,99.99
2019-03-18T08:42:19.588Z,99.99
2019-03-18T08:43:19.608Z,99.99
2019-03-18T08:44:19.610Z,99.99
2019-03-18T08:45:19.623Z,99.99
2019-03-18T08:46:19.729Z,99.99
2019-03-18T08:48:19.649Z,99.99
2019-03-18T08:49:19.661Z,99.99
2019-03-18T08:50:20.509Z,99.99
2019-03-18T08:51:19.750Z,99.99
2019-03-18T08:52:19.790Z,99.99
2019-03-18T08:53:19.844Z,99.99
2019-03-18T08:54:19.741Z,99.99
2019-03-18T08:55:19.819Z,99.99
2019-03-18T08:56:19.767Z,99.99
2019-03-18T08:58:19.779Z,99.99
2019-03-18T08:59:19.776Z,99.99
2019-03-18T09:01:23.658Z,99.99
2019-03-18T09:02:19.840Z,99.99
2019-03-18T09:03:19.830Z,99.99
2019-03-18T09:04:19.890Z,99.99
2019-03-18T09:05:19.912Z,99.99
2019-03-18T09:06:19.928Z,99.99
2019-03-18T09:07:20.180Z,99.99
2019-03-18T09:08:19.880Z,99.99
2019-03-18T09:09:20.853Z,99.99
2019-03-18T09:10:20.281Z,99.99
2019-03-18T09:11:19.906Z,99.99
2019-03-18T09:12:19.923Z,99.99
2019-03-18T09:13:19.941Z,99.99
2019-03-18T09:14:19.971Z,99.99
2019-03-18T09:15:19.965Z,99.99
2019-03-18T09:17:20.455Z,99.99
2019-03-18T09:18:20.620Z,99.99
2019-03-18T09:19:20.861Z,99.99
2019-03-18T09:20:20.683Z,99.99
2019-03-18T09:21:20.024Z,99.99
2019-03-18T09:22:20.180Z,99.99
2019-03-18T09:23:20.233Z,99.99
2019-03-18T09:24:20.510Z,99.88
2019-03-18T09:25:21.167Z,99.59
2019-03-18T09:26:20.763Z,99.97
2019-03-18T09:27:20.625Z,99.69
2019-03-18T09:28:22.309Z,99.74
2019-03-18T09:29:20.756Z,99.55
2019-03-18T09:30:20.712Z,98.88
2019-03-18T09:31:20.628Z,98.74
2019-03-18T09:32:21.707Z,99.40
2019-03-18T09:34:20.177Z,98.36
2019-03-18T09:35:20.838Z,97.41
2019-03-18T09:36:20.230Z,97.03
2019-03-18T09:37:20.595Z,96.17
2019-03-18T09:38:21.268Z,96.31
2019-03-18T09:39:20.230Z,95.84
2019-03-18T09:40:20.643Z,95.65
2019-03-18T09:41:20.274Z,95.08
2019-03-18T09:42:20.271Z,95.46
2019-03-18T09:44:20.291Z,94.70
2019-03-18T09:45:20.300Z,95.32
2019-03-18T09:46:20.315Z,95.22
2019-03-18T09:47:21.452Z,93.41
2019-03-18T09:48:20.341Z,93.41
2019-03-18T09:49:21.841Z,93.65
2019-03-18T09:50:20.360Z,93.55
2019-03-18T09:51:20.371Z,93.75
2019-03-18T09:52:20.538Z,94.03
2019-03-18T09:53:20.399Z,93.08
2019-03-18T09:54:20.409Z,93.18
2019-03-18T09:55:20.419Z,93.55
2019-03-18T09:56:20.428Z,93.75
2019-03-18T09:57:26.135Z,91.94
2019-03-18T09:58:20.460Z,90.89
2019-03-18T09:59:20.480Z,90.04
2019-03-18T10:00:20.474Z,89.94
2019-03-18T10:01:20.676Z,89.85
2019-03-18T10:02:20.551Z,89.66
2019-03-18T10:03:20.512Z,89.09
2019-03-18T10:04:21.114Z,88.90
2019-03-18T10:05:21.478Z,89.00
2019-03-18T10:07:20.567Z,89.56
2019-03-18T10:08:20.583Z,89.28
2019-03-18T10:09:20.600Z,88.61
2019-03-18T10:10:20.702Z,89.70
2019-03-18T10:11:20.754Z,88.85
2019-03-18T10:12:20.631Z,87.99
2019-03-18T10:13:20.642Z,86.52
2019-03-18T10:14:23.709Z,87.13
2019-03-18T10:15:20.666Z,86.28
2019-03-18T10:16:20.667Z,85.80
2019-03-18T10:17:20.686Z,84.85
2019-03-18T10:18:20.694Z,85.14
2019-03-18T10:19:32.703Z,83.23
2019-03-18T10:20:20.728Z,82.99
2019-03-18T10:21:20.732Z,82.04
2019-03-18T10:22:20.758Z,80.61
2019-03-18T10:23:20.768Z,80.10
2019-03-18T10:24:20.786Z,80.23
2019-03-18T10:25:20.780Z,80.52
2019-03-18T10:26:20.806Z,80.61
2019-03-18T10:27:20.806Z,80.23
2019-03-18T10:28:20.823Z,81.18
2019-03-18T10:29:20.828Z,80.23
2019-03-18T10:30:20.839Z,79.75
2019-03-18T10:31:20.871Z,80.33
2019-03-18T10:32:20.886Z,77.85
2019-03-18T10:33:20.899Z,76.71
2019-03-18T10:34:20.893Z,76.14
2019-03-18T10:35:20.900Z,76.14
2019-03-18T10:36:21.166Z,76.14
2019-03-18T10:37:20.925Z,74.65
2019-03-18T10:38:20.981Z,73.80
2019-03-18T10:39:20.959Z,73.19
2019-03-18T10:40:20.970Z,72.81
2019-03-18T10:41:21.281Z,73.10
2019-03-18T10:42:20.991Z,71.95
2019-03-18T10:43:20.995Z,71.95
2019-03-18T10:44:21.018Z,72.46
2019-03-18T10:45:21.027Z,72.17
2019-03-18T10:46:21.042Z,72.56
2019-03-18T10:47:21.132Z,71.98
2019-03-18T10:48:21.059Z,71.89
2019-03-18T10:49:21.099Z,71.42
2019-03-18T10:50:21.096Z,71.76
2019-03-18T10:51:21.103Z,72.71
2019-03-18T10:52:21.124Z,72.90
2019-03-18T10:53:21.152Z,73.95
2019-03-18T10:54:30.320Z,74.80
2019-03-18T10:55:21.157Z,75.09
2019-03-18T10:56:21.166Z,75.38
2019-03-18T10:57:21.186Z,75.47
2019-03-18T10:58:21.199Z,75.19
2019-03-18T10:59:21.203Z,74.62
2019-03-18T11:00:21.231Z,74.71
2019-03-18T11:01:21.249Z,74.90
2019-03-18T11:02:21.250Z,75.38
2019-03-18T11:03:21.251Z,75.47
2019-03-18T11:04:21.264Z,75.67
2019-03-18T11:05:21.280Z,75.09
2019-03-18T11:06:21.289Z,74.80
2019-03-18T11:07:21.322Z,74.90
2019-03-18T11:08:21.309Z,74.90
2019-03-18T11:09:21.335Z,74.04
2019-03-18T11:10:21.340Z,74.14
2019-03-18T11:11:21.366Z,74.62
2019-03-18T11:12:21.362Z,74.52
2019-03-18T11:13:21.392Z,74.04
2019-03-18T11:14:21.404Z,74.14
2019-03-18T11:15:21.400Z,73.85
2019-03-18T11:16:21.422Z,74.39
2019-03-18T11:17:21.422Z,74.58
2019-03-18T11:18:21.444Z,74.77
2019-03-18T11:19:21.560Z,74.96
2019-03-18T11:20:21.467Z,75.24
2019-03-18T11:21:21.469Z,75.62
2019-03-18T11:22:23.152Z,75.81
2019-03-18T11:23:21.499Z,76.67
2019-03-18T11:24:21.514Z,76.10
2019-03-18T11:25:21.588Z,76.10
2019-03-18T11:26:21.545Z,76.67
2019-03-18T11:27:21.667Z,77.05
2019-03-18T11:28:21.586Z,77.24
2019-03-18T11:29:21.571Z,78.96
2019-03-18T11:31:21.597Z,84.33
2019-03-18T11:32:21.709Z,90.33
2019-03-18T11:33:21.702Z,96.17
2019-03-18T11:34:21.637Z,99.99
2019-03-18T11:35:21.642Z,99.99
2019-03-18T11:36:21.684Z,99.99
2019-03-18T11:37:21.667Z,99.99
2019-03-18T11:38:21.691Z,99.99
2019-03-18T11:39:21.699Z,99.99
2019-03-18T11:40:21.717Z,99.99
2019-03-18T11:41:21.715Z,99.99
2019-03-18T11:42:21.729Z,99.99
2019-03-18T11:43:21.733Z,99.99
2019-03-18T11:44:21.747Z,99.99
2019-03-18T11:45:21.753Z,99.99
2019-03-18T11:46:21.769Z,99.99
2019-03-18T11:47:21.782Z,99.99
2019-03-18T11:48:21.892Z,99.99
2019-03-18T11:49:21.812Z,99.99
2019-03-18T11:50:21.817Z,99.99
2019-03-18T11:51:21.826Z,99.99
2019-03-18T11:52:21.845Z,99.99
2019-03-18T11:53:21.876Z,99.99
2019-03-18T11:54:22.427Z,99.99
2019-03-18T11:55:21.865Z,99.99
2019-03-18T11:56:22.059Z,99.99
2019-03-18T11:57:21.891Z,99.99
2019-03-18T11:58:21.899Z,99.99
2019-03-18T11:59:21.971Z,99.99
2019-03-18T12:00:21.967Z,99.99
2019-03-18T12:01:21.986Z,99.99
2019-03-18T12:02:27.605Z,99.99
2019-03-18T12:03:21.958Z,99.99
2019-03-18T12:04:21.965Z,99.99
2019-03-18T12:05:21.975Z,99.99
2019-03-18T12:06:22.015Z,99.99
2019-03-18T12:07:22.004Z,99.99
2019-03-18T12:08:22.010Z,99.99
2019-03-18T12:09:22.021Z,99.99
2019-03-18T12:10:25.145Z,99.99
2019-03-18T12:11:22.046Z,99.99
2019-03-18T12:12:22.648Z,99.99
2019-03-18T12:13:22.185Z,99.99
2019-03-18T12:14:22.083Z,99.99
2019-03-18T12:15:22.123Z,99.99
2019-03-18T12:16:22.112Z,99.99
2019-03-18T12:17:22.140Z,99.99
2019-03-18T12:18:22.227Z,99.99
2019-03-18T12:19:23.285Z,99.99
2019-03-18T12:20:24.736Z,99.99
2019-03-18T12:21:22.175Z,99.99
2019-03-18T12:22:22.188Z,99.99
2019-03-18T12:23:22.187Z,99.99
2019-03-18T12:24:22.216Z,99.99
2019-03-18T12:25:22.210Z,99.99
2019-03-18T12:26:22.224Z,99.99
2019-03-18T12:27:22.239Z,99.99
2019-03-18T12:28:22.248Z,99.84
2019-03-18T12:29:22.260Z,99.45
2019-03-18T12:30:22.280Z,99.02
2019-03-18T12:31:22.289Z,99.99
2019-03-18T12:32:22.292Z,99.99
2019-03-18T12:33:22.312Z,99.99
2019-03-18T12:34:22.322Z,99.99
2019-03-18T12:35:22.337Z,99.99
2019-03-18T12:36:22.346Z,98.03
2019-03-18T12:37:22.352Z,93.65
2019-03-18T12:38:22.393Z,91.94
2019-03-18T12:39:24.693Z,91.08
2019-03-18T12:40:22.493Z,90.61
2019-03-18T12:41:22.404Z,88.75
2019-03-18T12:42:22.516Z,86.55
2019-03-18T12:43:22.427Z,86.36
2019-03-18T12:44:22.448Z,85.41
2019-03-18T12:45:22.468Z,85.60
2019-03-18T12:46:22.468Z,84.94
2019-03-18T12:47:22.497Z,85.60
2019-03-18T12:48:22.549Z,84.69
2019-03-18T12:49:22.641Z,84.69
2019-03-18T12:50:38.683Z,82.89
2019-03-18T12:51:22.550Z,81.93
2019-03-18T12:52:22.542Z,81.36
2019-03-18T12:53:22.559Z,82.12
2019-03-18T12:54:22.571Z,83.78
2019-03-18T12:55:22.591Z,83.97
2019-03-18T12:56:22.602Z,81.55
2019-03-18T12:57:22.616Z,81.97
2019-03-18T12:58:22.928Z,83.31
2019-03-18T12:59:22.634Z,82.07
2019-03-18T13:00:22.648Z,80.44
2019-03-18T13:01:22.659Z,80.69
2019-03-18T13:02:22.682Z,80.60
2019-03-18T13:03:22.689Z,80.41
2019-03-18T13:04:22.704Z,82.41
2019-03-18T13:05:22.716Z,83.74
2019-03-18T13:06:22.745Z,84.79
2019-03-18T13:07:22.754Z,81.88